Terminal Aerodrome Forecast
Issued by NWS Lake Charles, LA

Home | Current Version | Previous Version | Text Only | Print | Product List | Glossary On
Versions: 1 2 3 4 5 6 7 8 9 10 11 12 13 14 15 16 17
000
FTUS44 KLCH 291100
TAFARA
TAF
KARA 291135Z 2912/3012 09005KT P6SM SCT150 SCT250
     FM291600 12008KT P6SM VCTS SCT029CB BKN100 BKN250
      TEMPO 2921/3001 VRB15G20KT 2SM TSRA SCT007 OVC029CB
     FM300100 12005KT 3SM RA BR SCT008 OVC015=

USA.gov is the U.S. government's official web portal to all federal, state and local government web resources and services.